Time;durP1;ratioP1;P1;durP2;ratioP2;P2;SDS_P1;SDS_P2;PMS_P1;PMS_P2;Temp;Humidity;BMP_temperature;BMP_pressure;BME280_temperature;BME280_humidity;BME280_pressure;Samples;Min_cycle;Max_cycle;Signal;HPM_P1;HPM_P2
2022/02/09 00:04:28;;;;;;;5.57;4.20;;;8.50;99.90;;;;;;5032064;28;20456;-46
2022/02/09 00:09:23;;;;;;;3.55;3.35;;;8.50;99.90;;;;;;5031000;28;20033;-45
2022/02/09 00:12:00;;;;;;;3.58;3.28;;;8.50;99.90;;;;;;5031205;28;20489;-43
2022/02/09 00:14:41;;;;;;;3.70;3.25;;;8.50;99.90;;;;;;5031520;28;20184;-47
2022/02/09 00:17:28;;;;;;;4.70;3.83;;;8.60;99.90;;;;;;5031068;28;20048;-45
2022/02/09 00:20:25;;;;;;;4.03;3.63;;;8.60;99.90;;;;;;5011776;28;20076;-45
2022/02/09 00:26:27;;;;;;;3.97;3.67;;;8.60;99.90;;;;;;5011491;28;20482;-43
2022/02/09 01:57:14;;;;;;;6.32;5.18;;;8.40;99.90;;;;;;5033907;28;20044;-43
2022/02/09 01:59:42;;;;;;;6.85;5.10;;;8.50;99.90;;;;;;5033454;28;20224;-44
2022/02/09 02:02:08;;;;;;;6.25;5.10;;;8.50;99.90;;;;;;5033110;28;20031;-44
2022/02/09 02:04:34;;;;;;;5.65;4.80;;;8.40;99.90;;;;;;5032953;28;20437;-44
2022/02/09 02:07:04;;;;;;;5.88;5.28;;;8.40;99.90;;;;;;5032704;28;20037;-44
2022/02/09 02:09:34;;;;;;;7.10;6.03;;;8.40;99.90;;;;;;5032752;28;20037;-43
2022/02/09 02:12:09;;;;;;;5.82;5.28;;;8.40;99.90;;;;;;5033003;28;20531;-41
2022/02/09 02:14:59;;;;;;;7.75;5.25;;;8.40;99.90;;;;;;5032652;28;20029;-42
2022/02/09 02:17:57;;;;;;;8.55;5.30;;;8.40;99.90;;;;;;5032457;28;20034;-42
2022/02/09 02:20:31;;;;;;;7.28;5.28;;;8.30;99.90;;;;;;5029625;28;20034;-43
2022/02/09 02:28:34;;;;;;;6.40;5.00;;;8.30;99.90;;;;;;5032330;28;20481;-41
2022/02/09 02:31:34;;;;;;;8.93;6.13;;;8.30;99.90;;;;;;5032294;28;20057;-42
2022/02/09 02:34:29;;;;;;;6.72;5.95;;;8.30;99.90;;;;;;5031879;28;20029;-44
2022/02/09 02:45:42;;;;;;;6.05;5.22;;;8.30;99.90;;;;;;5032048;28;20489;-43
2022/02/09 02:56:50;;;;;;;6.53;5.47;;;8.40;99.90;;;;;;5031644;28;20021;-45
2022/02/09 03:09:53;;;;;;;6.85;5.78;;;8.30;99.90;;;;;;5031807;28;20037;-43
2022/02/09 03:15:03;;;;;;;12.60;6.97;;;8.30;99.90;;;;;;5031414;28;20025;-43
2022/02/09 03:17:35;;;;;;;6.95;5.82;;;8.20;99.90;;;;;;5031861;28;20022;-44
2022/02/09 03:20:07;;;;;;;7.40;6.18;;;8.20;99.90;;;;;;5030366;28;20025;-42
2022/02/09 03:22:58;;;;;;;9.77;6.22;;;8.20;99.90;;;;;;5030231;28;20115;-42
2022/02/09 03:44:29;;;;;;;9.63;7.75;;;8.10;99.90;;;;;;5031441;28;20130;-43
2022/02/09 03:47:22;;;;;;;12.00;8.65;;;8.10;99.90;;;;;;5031348;28;20103;-45
2022/02/09 03:50:22;;;;;;;14.75;11.15;;;8.10;99.90;;;;;;5031492;28;20103;-44
2022/02/09 03:55:37;;;;;;;9.35;8.43;;;8.10;99.90;;;;;;5032153;28;20028;-43
2022/02/09 03:58:02;;;;;;;10.95;8.73;;;8.00;99.90;;;;;;5031263;28;20102;-42
2022/02/09 04:00:31;;;;;;;9.20;8.10;;;8.00;99.90;;;;;;5031162;28;20108;-43
2022/02/09 04:03:00;;;;;;;8.68;7.88;;;8.00;99.90;;;;;;5019920;28;20382;-44
2022/02/09 04:05:26;;;;;;;8.95;7.90;;;8.00;99.90;;;;;;5012011;28;20030;-45
2022/02/09 04:07:51;;;;;;;8.88;7.72;;;8.00;99.90;;;;;;5011250;28;20034;-45
2022/02/09 04:10:22;;;;;;;8.70;7.80;;;8.00;99.90;;;;;;5011738;28;20057;-44
2022/02/09 04:18:24;;;;;;;10.18;8.30;;;8.00;99.90;;;;;;5032429;28;20076;-43
2022/02/09 04:40:12;;;;;;;8.05;7.22;;;8.00;99.90;;;;;;5035034;28;20053;-45
2022/02/09 04:43:02;;;;;;;10.43;7.25;;;8.00;99.90;;;;;;5034664;28;20036;-43
2022/02/09 04:45:42;;;;;;;10.20;7.95;;;8.00;99.90;;;;;;5034194;28;20529;-46
2022/02/09 04:48:29;;;;;;;9.05;7.63;;;8.00;99.90;;;;;;5034632;28;20029;-45
2022/02/09 04:56:12;;;;;;;9.65;8.05;;;8.00;99.90;;;;;;5034345;28;20047;-50
2022/02/09 04:58:50;;;;;;;10.75;8.20;;;8.00;99.90;;;;;;5034294;28;20026;-46
2022/02/09 05:01:55;;;;;;;9.95;8.32;;;8.00;99.90;;;;;;5034004;28;20025;-45
2022/02/09 05:05:00;;;;;;;11.50;7.88;;;8.00;99.90;;;;;;5033670;28;20519;-44
2022/02/09 05:23:20;;;;;;;10.00;7.35;;;8.10;99.90;;;;;;5033707;28;20022;-43
2022/02/09 05:25:49;;;;;;;9.30;7.22;;;8.10;99.90;;;;;;5033917;28;20405;-44
2022/02/09 05:28:18;;;;;;;7.68;6.88;;;8.10;99.90;;;;;;5033772;28;20021;-43
2022/02/09 05:30:48;;;;;;;8.43;6.88;;;8.10;99.90;;;;;;5033335;28;20398;-45
2022/02/09 05:33:15;;;;;;;9.00;7.45;;;8.10;99.90;;;;;;5033151;28;20060;-43
2022/02/09 05:35:43;;;;;;;7.50;6.50;;;8.10;99.90;;;;;;5034091;28;20424;-42
2022/02/09 05:38:13;;;;;;;11.02;6.35;;;8.00;99.90;;;;;;5033537;28;20041;-44
2022/02/09 05:40:40;;;;;;;7.93;6.95;;;8.00;99.90;;;;;;5033659;28;20021;-43
2022/02/09 05:43:07;;;;;;;6.88;6.18;;;8.00;99.90;;;;;;5033094;28;20026;-42
2022/02/09 05:45:52;;;;;;;8.43;6.45;;;8.00;99.90;;;;;;5033528;28;20025;-42
2022/02/09 05:51:11;;;;;;;6.72;6.05;;;8.00;99.90;;;;;;5033585;28;20064;-43
2022/02/09 05:54:03;;;;;;;8.25;6.45;;;8.00;99.90;;;;;;5032733;28;20021;-43
2022/02/09 05:56:41;;;;;;;8.35;6.15;;;7.90;99.90;;;;;;5033048;28;20064;-44
2022/02/09 05:59:26;;;;;;;7.10;6.38;;;7.90;99.90;;;;;;5033244;28;20025;-44
2022/02/09 06:01:52;;;;;;;6.20;5.60;;;7.90;99.90;;;;;;5033263;28;20294;-42
2022/02/09 06:04:17;;;;;;;8.23;5.45;;;7.90;99.90;;;;;;5032679;28;20025;-45
2022/02/09 06:06:43;;;;;;;9.15;5.70;;;7.90;99.90;;;;;;5032647;28;20029;-47
2022/02/09 06:09:09;;;;;;;6.57;5.47;;;7.90;99.90;;;;;;5032885;28;20109;-44
2022/02/09 06:14:20;;;;;;;5.82;5.25;;;7.90;99.90;;;;;;5012918;28;20029;-44
2022/02/09 06:22:02;;;;;;;6.03;5.00;;;7.90;99.90;;;;;;5032696;28;20079;-44
2022/02/09 06:24:28;;;;;;;5.63;5.00;;;7.90;99.90;;;;;;5032333;28;20021;-44
2022/02/09 06:26:53;;;;;;;5.32;4.82;;;7.90;99.90;;;;;;5032730;28;20401;-44
2022/02/09 06:29:19;;;;;;;6.35;5.35;;;7.90;99.90;;;;;;5032495;28;20032;-45
2022/02/09 06:31:46;;;;;;;8.23;4.70;;;8.00;99.90;;;;;;5032471;28;20045;-43
2022/02/09 06:34:13;;;;;;;8.13;4.65;;;8.00;99.90;;;;;;5032066;28;20121;-44
2022/02/09 06:36:43;;;;;;;4.95;4.13;;;8.00;99.90;;;;;;5032448;28;20037;-46
2022/02/09 06:39:11;;;;;;;4.40;4.05;;;8.00;99.90;;;;;;5032522;28;20460;-46
2022/02/09 06:41:36;;;;;;;4.30;3.88;;;7.90;99.90;;;;;;5031528;28;20029;-50
2022/02/09 06:44:03;;;;;;;4.82;4.30;;;7.90;99.90;;;;;;5031617;28;20041;-46
2022/02/09 06:46:35;;;;;;;5.45;4.35;;;7.90;99.90;;;;;;5032014;28;20021;-45
2022/02/09 06:49:06;;;;;;;6.78;4.35;;;7.90;99.90;;;;;;5032305;28;20287;-45
2022/02/09 06:51:35;;;;;;;4.13;3.72;;;8.00;99.90;;;;;;5032052;28;20103;-44
2022/02/09 06:54:08;;;;;;;5.10;4.18;;;8.00;99.90;;;;;;5032086;28;20156;-44
2022/02/09 06:59:15;;;;;;;4.35;3.95;;;8.00;99.90;;;;;;5032229;28;20068;-45
2022/02/09 07:01:41;;;;;;;5.82;4.57;;;8.00;99.90;;;;;;5032046;28;20032;-43
2022/02/09 07:04:06;;;;;;;3.97;3.60;;;8.00;99.90;;;;;;5031793;28;20033;-45
2022/02/09 07:06:32;;;;;;;4.20;3.80;;;8.00;99.90;;;;;;5022565;28;20108;-45
2022/02/09 07:08:58;;;;;;;4.25;3.85;;;8.00;99.90;;;;;;5029176;28;20117;-45
2022/02/09 07:11:23;;;;;;;3.92;3.53;;;8.00;99.90;;;;;;5028575;28;20236;-45
2022/02/09 07:13:50;;;;;;;4.85;4.00;;;8.00;99.90;;;;;;5011899;28;20030;-46
2022/02/09 07:16:17;;;;;;;4.40;3.90;;;8.10;99.90;;;;;;5012198;28;20028;-47
2022/02/09 07:18:45;;;;;;;5.30;3.75;;;8.10;99.90;;;;;;5012093;28;20017;-43
2022/02/09 07:21:15;;;;;;;4.40;4.00;;;8.20;99.90;;;;;;5012017;28;20076;-45
2022/02/09 07:23:45;;;;;;;4.32;3.65;;;8.20;99.90;;;;;;5027750;28;20026;-46
2022/02/09 07:26:18;;;;;;;4.75;4.38;;;8.20;99.90;;;;;;5031321;28;20044;-44
2022/02/09 07:28:44;;;;;;;3.70;3.40;;;8.20;99.90;;;;;;5031652;28;20029;-46
2022/02/09 07:31:11;;;;;;;4.22;3.83;;;8.20;99.90;;;;;;5031350;28;20024;-48
2022/02/09 07:33:39;;;;;;;5.95;3.78;;;8.20;99.90;;;;;;5030924;28;20072;-44
2022/02/09 07:36:06;;;;;;;9.68;4.28;;;8.20;99.90;;;;;;5031993;28;20488;-46
2022/02/09 07:38:32;;;;;;;4.47;3.97;;;8.20;99.90;;;;;;5031709;28;20489;-44
2022/02/09 07:40:59;;;;;;;4.13;3.72;;;8.20;99.90;;;;;;5031045;28;20148;-46
2022/02/09 07:43:42;;;;;;;4.32;3.80;;;8.20;99.90;;;;;;5031009;28;20408;-44
2022/02/09 07:46:23;;;;;;;4.78;4.03;;;8.30;99.90;;;;;;5031545;28;20499;-44
2022/02/09 07:56:17;;;;;;;6.28;4.03;;;8.40;99.90;;;;;;5028977;28;20454;-41
2022/02/09 07:58:43;;;;;;;4.47;3.83;;;8.40;99.90;;;;;;5015585;28;20030;-42
2022/02/09 08:01:09;;;;;;;8.05;5.68;;;8.40;99.90;;;;;;5029300;28;20147;-42
2022/02/09 08:03:36;;;;;;;5.80;4.10;;;8.40;99.90;;;;;;5033652;28;20104;-41
2022/02/09 08:06:02;;;;;;;4.07;3.67;;;8.40;99.90;;;;;;5033572;28;20063;-45
2022/02/09 08:08:31;;;;;;;8.30;4.57;;;8.40;99.90;;;;;;5034320;28;20373;-44
2022/02/09 08:11:09;;;;;;;4.88;4.05;;;8.40;99.90;;;;;;5034727;28;20029;-44
2022/02/09 08:28:19;;;;;;;12.63;4.55;;;8.40;99.90;;;;;;5033660;28;20037;-44
2022/02/09 08:33:03;;;;;;;6.72;4.53;;;8.40;99.90;;;;;;5019908;28;20105;-43
2022/02/09 08:35:29;;;;;;;5.80;4.72;;;8.40;99.90;;;;;;5015729;28;20022;-43
2022/02/09 08:37:57;;;;;;;8.00;4.88;;;8.50;99.90;;;;;;5026065;28;20060;-44
2022/02/09 08:40:24;;;;;;;6.25;4.43;;;8.50;99.90;;;;;;5034120;28;20049;-43
2022/02/09 08:42:50;;;;;;;8.52;6.18;;;8.60;99.90;;;;;;5033462;28;20186;-41
2022/02/09 08:45:15;;;;;;;6.35;4.95;;;8.60;99.90;;;;;;5034725;28;20025;-42
2022/02/09 08:47:42;;;;;;;6.20;4.95;;;8.50;99.90;;;;;;5034488;28;20025;-43
2022/02/09 08:50:08;;;;;;;6.93;4.43;;;8.60;99.90;;;;;;5034295;28;20029;-42
2022/02/09 08:52:33;;;;;;;10.65;4.97;;;8.60;99.90;;;;;;5033245;28;20049;-44
2022/02/09 08:54:59;;;;;;;10.10;4.85;;;8.60;99.90;;;;;;5034674;28;20425;-43
2022/02/09 08:57:25;;;;;;;9.80;4.60;;;8.70;99.90;;;;;;5033047;28;20568;-45
2022/02/09 08:59:52;;;;;;;8.85;6.05;;;8.70;99.90;;;;;;5034762;28;20087;-43
2022/02/09 09:02:20;;;;;;;6.13;4.63;;;8.70;99.90;;;;;;5034635;28;20100;-43
2022/02/09 09:04:56;;;;;;;7.32;4.50;;;8.80;99.90;;;;;;5034068;28;20045;-45
2022/02/09 09:07:25;;;;;;;6.63;4.70;;;8.80;99.90;;;;;;5034597;28;20034;-43
2022/02/09 09:10:07;;;;;;;7.15;5.38;;;8.80;99.90;;;;;;5034586;28;20108;-44
2022/02/09 10:02:08;;;;;;;6.07;4.53;;;9.90;99.90;;;;;;5020494;28;20022;-44
2022/02/09 10:33:12;;;;;;;10.88;4.90;;;10.10;99.90;;;;;;5024483;28;20068;-43
2022/02/09 10:36:02;;;;;;;4.43;4.03;;;10.20;99.90;;;;;;5030651;28;20021;-45
2022/02/09 10:38:33;;;;;;;7.15;3.83;;;10.30;99.90;;;;;;5025626;28;20088;-44
2022/02/09 10:41:22;;;;;;;13.57;4.55;;;10.40;99.90;;;;;;5032973;28;20025;-41
2022/02/09 10:43:48;;;;;;;7.55;4.43;;;10.60;99.90;;;;;;5032622;28;20461;-42
2022/02/09 10:46:20;;;;;;;9.90;4.22;;;10.70;99.90;;;;;;5031482;28;20026;-46
2022/02/09 10:48:53;;;;;;;5.47;3.78;;;10.80;99.90;;;;;;5029215;28;20039;-42
2022/02/09 10:51:41;;;;;;;7.35;3.83;;;11.00;99.90;;;;;;5029404;28;20029;-42
2022/02/09 10:54:14;;;;;;;6.60;4.13;;;11.20;99.90;;;;;;5024065;28;20032;-41
2022/02/09 10:56:42;;;;;;;6.15;3.72;;;11.30;99.90;;;;;;5032043;28;20089;-41
2022/02/09 10:59:11;;;;;;;6.82;4.35;;;11.20;99.90;;;;;;5022022;28;20071;-42
2022/02/09 11:01:38;;;;;;;12.25;4.63;;;11.10;99.90;;;;;;5021238;28;20025;-43
2022/02/09 11:04:04;;;;;;;5.13;4.10;;;10.90;99.90;;;;;;5030968;28;20037;-42
2022/02/09 11:06:33;;;;;;;5.95;3.60;;;10.90;99.90;;;;;;5019081;28;20032;-43
2022/02/09 11:09:00;;;;;;;3.88;3.53;;;11.00;99.90;;;;;;5033576;28;20025;-46
2022/02/09 11:11:28;;;;;;;6.32;3.60;;;11.10;99.90;;;;;;5018555;28;20030;-43
2022/02/09 11:13:54;;;;;;;5.05;3.53;;;11.20;99.90;;;;;;5030759;28;20113;-44
2022/02/09 11:16:22;;;;;;;6.25;3.55;;;11.20;99.90;;;;;;5031881;28;20053;-44
2022/02/09 11:18:49;;;;;;;4.55;3.38;;;11.30;99.90;;;;;;5032335;28;20035;-42
2022/02/09 11:21:15;;;;;;;6.97;3.38;;;11.40;99.90;;;;;;5032288;28;20032;-43
2022/02/09 11:23:49;;;;;;;9.02;3.80;;;11.50;99.90;;;;;;5032106;28;20021;-42
2022/02/09 11:26:37;;;;;;;6.50;3.30;;;11.40;99.90;;;;;;5032695;28;20033;-43
2022/02/09 11:32:17;;;;;;;7.65;3.10;;;11.40;99.90;;;;;;5013000;28;20052;-43
2022/02/09 11:34:48;;;;;;;7.63;3.70;;;11.40;99.90;;;;;;5020696;28;20021;-41
2022/02/09 11:37:23;;;;;;;4.93;3.20;;;11.30;99.90;;;;;;5023267;28;20116;-42
2022/02/09 11:39:51;;;;;;;10.30;3.38;;;11.30;99.90;;;;;;5018974;28;20044;-42
2022/02/09 11:42:37;;;;;;;11.32;4.78;;;11.40;99.90;;;;;;5030034;28;20021;-45
2022/02/09 11:45:23;;;;;;;4.20;3.17;;;11.40;99.90;;;;;;5022107;28;20026;-42
2022/02/09 11:58:45;;;;;;;5.15;3.47;;;11.80;99.90;;;;;;5031842;28;20040;-45
2022/02/09 12:08:47;;;;;;;12.25;3.85;;;11.80;99.90;;;;;;5021065;28;20030;-42
2022/02/09 12:10:16;;;;;;;6.32;3.28;;;11.70;99.90;;;;;;5031575;28;20116;-43
2022/02/09 12:12:52;;;;;;;7.10;3.80;;;11.80;99.90;;;;;;5031778;28;20021;-43
2022/02/09 12:15:45;;;;;;;;;;;11.70;99.90;;;;;;5032349;28;20029;-45
2022/02/09 12:18:24;;;;;;;5.85;3.45;;;11.80;99.90;;;;;;5031054;28;20100;-42
2022/02/09 12:20:55;;;;;;;9.18;3.58;;;11.90;99.90;;;;;;5031041;28;20029;-43
2022/02/09 12:23:34;;;;;;;10.43;4.28;;;11.90;99.90;;;;;;5026795;28;20031;-50
2022/02/09 12:26:06;;;;;;;7.28;4.55;;;11.90;99.90;;;;;;5030957;28;20507;-44
2022/02/09 12:28:37;;;;;;;8.23;3.33;;;11.80;99.90;;;;;;5024558;28;20109;-43
2022/02/09 12:31:09;;;;;;;4.32;3.40;;;11.90;99.90;;;;;;5011268;28;20508;-42
2022/02/09 12:33:40;;;;;;;6.85;3.47;;;12.00;99.90;;;;;;5011434;28;20030;-43
2022/02/09 12:36:15;;;;;;;3.42;2.72;;;12.00;99.90;;;;;;5020273;28;20033;-44
2022/02/09 12:38:42;;;;;;;9.65;4.03;;;12.20;99.90;;;;;;5031927;28;20017;-42
2022/02/09 12:41:08;;;;;;;5.75;4.03;;;12.40;99.90;;;;;;5024434;28;20501;-43
2022/02/09 12:43:52;;;;;;;6.97;4.00;;;12.40;99.90;;;;;;5023760;28;20056;-43
2022/02/09 12:46:20;;;;;;;5.90;4.38;;;12.50;99.90;;;;;;5034846;28;20110;-43
2022/02/09 12:48:45;;;;;;;7.20;4.03;;;12.50;99.90;;;;;;5023516;28;20041;-42
2022/02/09 12:51:24;;;;;;;5.97;4.00;;;12.50;99.90;;;;;;5023914;28;20397;-42
2022/02/09 12:53:50;;;;;;;6.80;5.03;;;12.50;99.90;;;;;;5033936;28;20088;-41
2022/02/09 12:56:27;;;;;;;6.68;4.10;;;12.60;99.90;;;;;;5034623;28;20092;-43
2022/02/09 12:58:58;;;;;;;4.85;4.22;;;12.60;99.90;;;;;;5034090;28;20457;-44
2022/02/09 13:01:23;;;;;;;6.53;3.92;;;12.60;99.90;;;;;;5034431;28;20039;-44
2022/02/09 13:03:49;;;;;;;8.00;3.60;;;12.70;99.90;;;;;;5034293;28;20392;-42
2022/02/09 13:06:14;;;;;;;8.50;3.30;;;12.70;99.90;;;;;;5034386;28;20500;-45
2022/02/09 13:08:40;;;;;;;8.10;3.33;;;12.60;99.90;;;;;;5034365;28;20057;-43
2022/02/09 13:11:26;;;;;;;6.38;3.10;;;12.60;99.90;;;;;;5034231;28;20447;-43
2022/02/09 13:13:57;;;;;;;4.65;2.78;;;12.60;99.90;;;;;;5034412;28;20032;-45
2022/02/09 13:16:34;;;;;;;5.22;3.15;;;12.50;99.90;;;;;;5034375;28;20071;-43
2022/02/09 13:19:25;;;;;;;8.70;3.10;;;12.60;99.90;;;;;;5034062;28;20477;-42
2022/02/09 14:02:58;;;;;;;5.75;3.05;;;12.70;99.90;;;;;;5033241;28;20023;-45
2022/02/09 14:05:25;;;;;;;6.97;3.08;;;12.80;99.90;;;;;;5032914;28;20060;-44
2022/02/09 14:15:27;;;;;;;6.63;2.85;;;12.90;99.90;;;;;;5033619;28;20507;-42
2022/02/09 14:34:55;;;;;;;8.85;3.40;;;12.60;99.90;;;;;;5032737;28;20404;-43
2022/02/09 14:51:15;;;;;;;6.55;2.90;;;12.70;99.90;;;;;;5032445;28;20026;-43
2022/02/09 14:55:55;;;;;;;4.93;2.80;;;12.70;99.90;;;;;;5032624;28;20021;-43
2022/02/09 14:58:27;;;;;;;6.95;2.90;;;12.60;99.90;;;;;;5032463;28;20396;-43
2022/02/09 15:01:03;;;;;;;10.38;2.88;;;12.60;99.90;;;;;;5032258;28;20028;-44
2022/02/09 15:12:02;;;;;;;9.05;3.30;;;12.60;99.90;;;;;;5032087;28;20029;-42
2022/02/09 15:14:12;;;;;;;9.32;3.00;;;12.60;99.90;;;;;;5023124;28;20033;-43
2022/02/09 15:19:18;;;;;;;9.18;3.17;;;12.50;99.90;;;;;;5031640;28;20260;-43
2022/02/09 15:22:02;;;;;;;7.85;2.78;;;12.50;99.90;;;;;;5031922;28;20017;-43
2022/02/09 15:24:37;;;;;;;7.90;3.33;;;12.50;99.90;;;;;;5032011;28;20053;-43
2022/02/09 15:27:03;;;;;;;10.20;3.70;;;12.60;99.90;;;;;;5031919;28;20018;-41
2022/02/09 15:29:29;;;;;;;12.18;2.78;;;12.50;99.90;;;;;;5031733;28;20311;-41
2022/02/09 15:32:00;;;;;;;8.50;3.60;;;12.50;99.90;;;;;;5031820;28;20044;-46
2022/02/09 15:34:33;;;;;;;4.40;2.85;;;12.50;99.90;;;;;;5031412;28;20481;-42
2022/02/09 15:37:08;;;;;;;7.95;2.95;;;12.50;99.90;;;;;;5031624;28;20104;-45
2022/02/09 15:39:45;;;;;;;7.72;3.30;;;12.50;99.90;;;;;;5031575;28;20124;-43
2022/02/09 16:10:41;;;;;;;7.20;3.25;;;12.10;99.90;;;;;;5026572;28;20092;-43
2022/02/09 16:19:07;;;;;;;8.15;3.80;;;11.90;99.90;;;;;;5034867;28;20419;-41
2022/02/09 16:24:27;;;;;;;12.35;3.95;;;11.80;99.90;;;;;;5035197;28;20025;-43
2022/02/09 16:37:29;;;;;;;20.27;8.40;;;11.40;99.90;;;;;;5034972;28;20022;-44
2022/02/09 16:45:23;;;;;;;14.80;7.05;;;11.10;99.90;;;;;;5035212;28;20520;-45
2022/02/09 16:48:03;;;;;;;11.30;6.13;;;11.00;99.90;;;;;;5034582;28;20057;-44
2022/02/09 16:50:37;;;;;;;13.00;6.80;;;10.90;99.90;;;;;;5030008;28;20108;-46
2022/02/09 16:53:19;;;;;;;15.68;7.15;;;10.90;99.90;;;;;;5034477;28;20021;-44
2022/02/09 17:19:42;;;;;;;11.02;5.57;;;10.50;99.90;;;;;;5017627;28;20064;-51
2022/02/09 17:22:08;;;;;;;12.35;5.45;;;10.40;99.90;;;;;;5014103;28;20413;-45
2022/02/09 17:24:34;;;;;;;12.20;6.05;;;10.40;99.90;;;;;;5013621;28;20022;-42
2022/02/09 17:27:00;;;;;;;11.05;5.85;;;10.40;99.90;;;;;;5013857;28;20037;-46
2022/02/09 17:29:40;;;;;;;17.08;5.90;;;10.40;99.90;;;;;;5013933;28;20034;-46
2022/02/09 17:32:14;;;;;;;11.63;5.72;;;10.40;99.90;;;;;;5012278;28;20163;-44
2022/02/09 17:53:24;;;;;;;12.60;5.32;;;10.10;99.90;;;;;;5013647;28;20321;-45
2022/02/09 17:56:15;;;;;;;8.48;5.47;;;10.00;99.90;;;;;;5026713;28;20032;-43
2022/02/09 17:58:47;;;;;;;10.18;5.15;;;10.00;99.90;;;;;;5033431;28;20022;-44
2022/02/09 18:01:16;;;;;;;9.75;5.80;;;10.00;99.90;;;;;;5033389;28;20097;-45
2022/02/09 18:03:42;;;;;;;14.73;6.03;;;10.00;99.90;;;;;;5033368;28;20477;-44
2022/02/09 18:06:17;;;;;;;17.85;7.30;;;9.90;99.90;;;;;;5033416;28;20021;-44
2022/02/09 18:11:41;;;;;;;17.55;7.78;;;9.90;99.90;;;;;;5033090;28;20033;-45
2022/02/09 18:27:56;;;;;;;10.27;5.82;;;9.80;99.90;;;;;;5032721;28;20044;-45
2022/02/09 18:30:29;;;;;;;15.13;6.47;;;9.70;99.90;;;;;;5032707;28;20037;-46
2022/02/09 18:42:18;;;;;;;11.68;5.05;;;9.70;99.90;;;;;;5032640;28;20111;-47
2022/02/09 19:02:45;;;;;;;12.52;5.93;;;9.40;99.90;;;;;;5028395;28;20030;-49
2022/02/09 19:32:31;;;;;;;11.30;5.25;;;9.00;99.90;;;;;;5009021;28;20029;-50
2022/02/09 19:44:11;;;;;;;11.45;6.22;;;8.80;99.90;;;;;;5028577;28;20060;-45
2022/02/09 19:46:15;;;;;;;14.07;6.38;;;8.70;99.90;;;;;;5028180;28;20064;-48
2022/02/09 19:48:51;;;;;;;12.93;6.97;;;8.60;99.90;;;;;;5027555;28;20029;-44
2022/02/09 19:51:40;;;;;;;11.60;6.10;;;8.60;99.90;;;;;;5027041;28;20034;-44
2022/02/09 19:56:46;;;;;;;12.13;6.95;;;8.60;99.90;;;;;;5028386;28;20026;-45
2022/02/09 19:59:17;;;;;;;14.77;7.00;;;8.60;99.90;;;;;;5007199;28;20033;-46
2022/02/09 20:01:44;;;;;;;13.57;7.40;;;8.50;99.90;;;;;;5021040;28;20310;-46
2022/02/09 20:04:10;;;;;;;11.23;7.25;;;8.50;99.90;;;;;;5027653;28;20025;-48
2022/02/09 20:06:35;;;;;;;14.35;6.82;;;8.50;99.90;;;;;;5021156;28;20511;-46
2022/02/09 20:09:03;;;;;;;11.95;5.97;;;8.40;99.90;;;;;;5028197;28;20108;-43
2022/02/09 20:11:28;;;;;;;13.93;6.38;;;8.40;99.90;;;;;;5028112;28;20501;-46
2022/02/09 20:13:54;;;;;;;11.77;5.95;;;8.40;99.90;;;;;;5022564;28;20034;-45
2022/02/09 20:16:22;;;;;;;12.35;7.32;;;8.40;99.90;;;;;;5012619;28;20037;-45
2022/02/09 20:18:51;;;;;;;15.15;6.82;;;8.40;99.90;;;;;;5008429;28;20018;-44
2022/02/09 20:21:19;;;;;;;8.13;5.88;;;8.30;99.90;;;;;;5018444;28;20026;-44
2022/02/09 20:23:45;;;;;;;11.50;6.25;;;8.30;99.90;;;;;;5027757;28;20022;-45
2022/02/09 20:26:12;;;;;;;11.35;6.47;;;8.30;99.90;;;;;;5016299;28;20565;-41
2022/02/09 20:28:42;;;;;;;8.93;5.50;;;8.20;99.90;;;;;;5010311;28;20084;-44
2022/02/09 20:31:12;;;;;;;7.32;5.95;;;8.20;99.90;;;;;;5027784;28;20444;-42
2022/02/09 20:34:02;;;;;;;8.80;5.93;;;8.20;99.90;;;;;;5027223;28;20103;-45
2022/02/09 20:36:27;;;;;;;13.90;5.75;;;8.10;99.90;;;;;;5027677;28;20504;-48
2022/02/09 20:38:56;;;;;;;11.77;7.28;;;8.10;99.90;;;;;;5027520;28;20033;-42
2022/02/09 20:41:22;;;;;;;8.65;5.95;;;8.10;99.90;;;;;;5027342;28;20034;-45
2022/02/09 20:44:02;;;;;;;11.63;6.05;;;8.10;99.90;;;;;;5027540;28;20040;-47
2022/02/09 20:46:30;;;;;;;10.15;6.32;;;8.00;99.90;;;;;;5027728;28;20410;-44
2022/02/09 20:48:56;;;;;;;16.48;7.55;;;7.90;99.90;;;;;;5027691;28;20400;-43
2022/02/09 20:51:22;;;;;;;11.35;6.90;;;7.90;99.90;;;;;;5027520;28;20029;-47
2022/02/09 20:53:48;;;;;;;9.52;6.32;;;7.90;99.90;;;;;;5029218;28;20030;-42
2022/02/09 20:56:13;;;;;;;11.40;6.55;;;7.90;99.90;;;;;;5030282;28;20297;-43
2022/02/09 20:58:42;;;;;;;12.93;7.10;;;7.80;99.90;;;;;;5030390;28;20053;-40
2022/02/09 21:01:13;;;;;;;9.48;6.38;;;7.80;99.90;;;;;;5033050;28;20386;-44
2022/02/09 21:04:02;;;;;;;12.60;6.82;;;7.70;99.90;;;;;;5033885;28;20021;-43
2022/02/09 21:06:39;;;;;;;13.93;6.65;;;7.70;99.90;;;;;;5034371;28;20034;-44
2022/02/09 21:09:22;;;;;;;12.02;6.97;;;7.70;99.90;;;;;;5034360;28;20030;-43
2022/02/09 21:12:04;;;;;;;14.35;7.35;;;7.70;99.90;;;;;;5034470;28;20132;-43
2022/02/09 21:33:29;;;;;;;13.45;8.38;;;7.80;99.90;;;;;;5033615;28;20072;-44
2022/02/09 21:50:30;;;;;;;11.70;6.35;;;7.50;99.90;;;;;;5033517;28;20044;-44
2022/02/09 21:55:23;;;;;;;11.32;6.95;;;7.50;99.90;;;;;;5033304;28;20028;-43
2022/02/09 21:58:04;;;;;;;11.30;7.03;;;7.50;99.90;;;;;;5008007;28;20013;-46
2022/02/09 22:00:58;;;;;;;14.82;7.93;;;7.40;99.90;;;;;;5030034;28;20048;-42
2022/02/09 22:19:15;;;;;;;10.82;7.18;;;7.40;99.90;;;;;;5033241;28;20550;-44
2022/02/09 22:23:15;;;;;;;11.82;7.88;;;7.30;99.90;;;;;;5032955;28;20028;-46
2022/02/09 22:28:05;;;;;;;13.15;7.15;;;7.30;99.90;;;;;;5032142;28;20056;-44
2022/02/09 22:47:23;;;;;;;14.15;7.35;;;7.20;99.90;;;;;;5032434;28;20103;-47
2022/02/09 22:49:32;;;;;;;8.15;6.88;;;7.20;99.90;;;;;;5032305;28;20025;-42
2022/02/09 22:54:45;;;;;;;13.05;6.85;;;7.10;99.90;;;;;;5031726;28;20082;-44
2022/02/09 22:57:12;;;;;;;12.13;7.03;;;7.10;99.90;;;;;;5030557;28;20029;-44
2022/02/09 22:59:57;;;;;;;11.68;6.32;;;7.10;99.90;;;;;;5032157;28;20029;-44
2022/02/09 23:02:28;;;;;;;11.60;6.18;;;7.10;99.90;;;;;;5020998;28;20041;-44
2022/02/09 23:07:49;;;;;;;21.17;11.90;;;7.10;99.90;;;;;;5024800;28;20405;-45
2022/02/09 23:10:34;;;;;;;14.93;7.93;;;7.10;99.90;;;;;;5031663;28;20091;-43
2022/02/09 23:13:08;;;;;;;7.78;5.93;;;7.10;99.90;;;;;;5031938;28;20017;-43
2022/02/09 23:15:42;;;;;;;9.25;6.05;;;7.10;99.90;;;;;;5023931;28;20036;-44
2022/02/09 23:58:49;;;;;;;12.52;7.00;;;6.70;99.90;;;;;;5012129;28;20050;-49
